aviador You're here:

CYQB Decoded Metar

QUEBEC in QC, CANADA
Report Time2017-07-22 10:00:00
UTC Time2017-07-22 10:40:34
Flight Rules vfr VFR
WindCalm
Visibility9999 m
Phenomena:N/A
Clouds:Few 030 Hf
Few 090 Hf
Expected CloudBase > 2,400 ft AGL from Temp-Dew spread
CeilingNone
Temp13°C (ISA -2)
Dew Point07°C (67% RH)
AAT12.3°C
QNH1011 hPa
Density Alt262 ft
Elevation240 ft
Report Wrong Elevation
Raw Report
METAR CYQB 221000Z 00000KT 30SM FEW030 FEW090 13/07 A2985 RMK CF1AC1
CF TR SLP111=

Extra information for CYQB:More info

Metar Taf Metar & Taf Last 4 Metars F.Rules Stats Wind Profile Meteogram Temp Stats Airport Information Weather charts Add Link Nearby VenuesMetar ALERT Operation Metar Decoded Social comments

navcanada